Faucett, MO (64448)

11:23 AM CST on February 12, 2016 (GMT -0600)
saint joseph missouri south site of city | | Change Station
CLOSE
Current Station
Personal Weather Station
Location: Saint Joseph, MO
Elevation: 1010 ft
Nearby Weather Stations

Elev 1010 ft 39.72 °N, 94.84 °W | Updated 11 seconds ago

Overcast
Overcast
31.9 °F
Feels Like 24 °F
N
10.1
Wind Variable Wind from NNE
Gusts 17.4 mph

Today
High -- | Low -- °F
--% Chance of Precip.
Yesterday
High -- | Low -- °F
Precip. -- in
Pressure 30.48 in
Visibility 10.0 miles
Clouds Few 3600 ft
Windchill 24 °F
Dew Point 11 °F
Humidity 41%
Rainfall 0.00 in
Snow Depth Not available.
7:15 AM 5:51 PM
Waxing Crescent, 22% visible
METAR KSTJ 121653Z 35018KT 10SM FEW036 M01/M08 A3045 RMK AO2 SLP320 T10111078
Pressure 30.48 in
Visibility 10.0 miles
Clouds Few 3600 ft
Windchill 24 °F
Dew Point 11 °F
Humidity 41%
Rainfall 0.00 in
Snow Depth Not available.
7:15 AM 5:51 PM
Waxing Crescent, 22% visible
METAR KSTJ 121653Z 35018KT 10SM FEW036 M01/M08 A3045 RMK AO2 SLP320 T10111078

10-Day Weather Forecast

Almanac

Astronomy

Feb. 12, 2016 Rise Set
Actual Time
Civil Twilight
Nautical Twilight
Astronomical Twilight
Moon
Length of Visible Light
Length of Day
Tomorrow will be .
, % of the Moon is Illuminated

Today's Extremes

State Highs State Lows

Community

WunderPhotos

Upload Photos

1,892,353 photos uploaded!

WunderBlog® & News

Nearby

Air Quality

  Air Quality AQ Index Pollutant
Not available.

Snow Depth

Station Depth Elevation

Earthquake Activity

City Distance Mag. Time & Date
Minimum magnitude displayed is 2.5.

Coastal Water Temperatures

Place Temperature

Stations

Nearby Weather Stations

Station Location Temp. Windchill Dew Point Humidity Wind Precip. Elev Updated Type
                   

Watches & Warnings

There are currently no watches in effect.